Time;durP1;ratioP1;P1;durP2;ratioP2;P2;SDS_P1;SDS_P2;PMS_P1;PMS_P2;Temp;Humidity;BMP_temperature;BMP_pressure;BME280_temperature;BME280_humidity;BME280_pressure;Samples;Min_cycle;Max_cycle;Signal;HPM_P1;HPM_P2
2022/08/01 00:01:58;;;;;;;1.05;0.90;;;;;;;;;;5081050;28;20039;-83
2022/08/01 00:04:24;;;;;;;1.00;0.88;;;;;;;;;;5052523;28;20033;-79
2022/08/01 00:06:50;;;;;;;1.80;1.10;;;;;;;;;;5033938;28;20040;-79
2022/08/01 00:09:16;;;;;;;0.95;0.90;;;;;;;;;;5074645;28;20451;-79
2022/08/01 00:11:42;;;;;;;1.88;0.90;;;;;;;;;;5040232;28;20048;-80
2022/08/01 00:14:09;;;;;;;1.58;0.80;;;;;;;;;;5065933;28;20036;-80
2022/08/01 00:16:35;;;;;;;1.10;1.00;;;;;;;;;;5063669;28;20041;-80
2022/08/01 00:19:01;;;;;;;1.25;1.02;;;;;;;;;;5061734;28;20123;-80
2022/08/01 00:21:27;;;;;;;1.13;0.85;;;;;;;;;;5070404;28;20167;-79
2022/08/01 00:23:53;;;;;;;0.70;0.70;;;;;;;;;;5062438;28;20536;-79
2022/08/01 00:26:19;;;;;;;1.55;0.90;;;;;;;;;;5070478;28;20119;-79
2022/08/01 00:28:45;;;;;;;0.85;0.80;;;;;;;;;;5085788;28;20383;-80
2022/08/01 00:31:11;;;;;;;1.20;0.77;;;;;;;;;;5086709;28;20087;-79
2022/08/01 00:33:37;;;;;;;0.93;0.88;;;;;;;;;;5086791;28;20024;-80
2022/08/01 00:36:03;;;;;;;1.35;1.00;;;;;;;;;;5086891;28;20033;-80
2022/08/01 00:38:29;;;;;;;1.48;0.90;;;;;;;;;;5071951;28;20028;-79
2022/08/01 00:40:55;;;;;;;0.88;0.77;;;;;;;;;;5070436;28;20029;-80
2022/08/01 00:43:21;;;;;;;1.45;0.77;;;;;;;;;;5069631;28;21640;-80
2022/08/01 00:45:47;;;;;;;1.23;0.93;;;;;;;;;;5072547;28;20029;-81
2022/08/01 00:48:13;;;;;;;1.13;0.98;;;;;;;;;;5074668;28;20091;-79
2022/08/01 00:50:39;;;;;;;1.17;0.85;;;;;;;;;;5090949;28;20071;-80
2022/08/01 00:53:06;;;;;;;2.03;0.75;;;;;;;;;;5090192;28;20444;-80
2022/08/01 00:55:32;;;;;;;2.05;0.80;;;;;;;;;;5090898;28;20032;-79
2022/08/01 00:57:58;;;;;;;0.88;0.82;;;;;;;;;;5075522;28;20139;-79
2022/08/01 01:00:25;;;;;;;1.98;1.17;;;;;;;;;;5103484;28;20534;-80
2022/08/01 01:02:53;;;;;;;3.15;0.90;;;;;;;;;;5074581;28;20101;-80
2022/08/01 01:05:19;;;;;;;1.65;0.93;;;;;;;;;;5090029;28;20032;-79
2022/08/01 01:07:49;;;;;;;1.00;0.93;;;;;;;;;;5074537;28;20081;-79
2022/08/01 01:10:39;;;;;;;1.15;0.80;;;;;;;;;;5089546;28;20490;-79
2022/08/01 01:13:09;;;;;;;1.42;0.90;;;;;;;;;;5090731;28;20035;-81
2022/08/01 01:15:39;;;;;;;1.05;0.95;;;;;;;;;;5074459;28;20445;-79
2022/08/01 01:18:13;;;;;;;1.30;1.00;;;;;;;;;;5090202;28;20032;-79
2022/08/01 01:20:41;;;;;;;1.05;0.80;;;;;;;;;;5090527;28;20032;-80
2022/08/01 01:23:22;;;;;;;0.93;0.93;;;;;;;;;;5071853;28;20128;-79
2022/08/01 01:26:08;;;;;;;1.45;0.90;;;;;;;;;;5054903;28;20037;-80
2022/08/01 01:28:41;;;;;;;2.25;1.00;;;;;;;;;;5036793;28;20053;-80
2022/08/01 01:31:08;;;;;;;2.25;1.00;;;;;;;;;;5040283;28;20288;-80
2022/08/01 01:33:35;;;;;;;1.75;1.00;;;;;;;;;;5046550;28;20505;-79
2022/08/01 01:36:06;;;;;;;1.17;0.70;;;;;;;;;;5036431;28;20029;-80
2022/08/01 01:38:38;;;;;;;0.80;0.70;;;;;;;;;;5054635;28;20068;-79
2022/08/01 01:41:06;;;;;;;1.17;0.80;;;;;;;;;;5070192;28;20029;-79
2022/08/01 01:43:32;;;;;;;1.13;1.00;;;;;;;;;;5069580;28;20101;-79
2022/08/01 01:45:59;;;;;;;1.40;0.95;;;;;;;;;;5089234;28;20446;-79
2022/08/01 01:48:25;;;;;;;0.98;0.90;;;;;;;;;;5088923;28;20471;-79
2022/08/01 01:50:52;;;;;;;1.25;0.80;;;;;;;;;;5088960;28;20055;-80
2022/08/01 01:53:19;;;;;;;1.55;0.80;;;;;;;;;;5074404;28;20104;-79
2022/08/01 01:55:47;;;;;;;1.55;1.02;;;;;;;;;;5074260;28;20066;-80
2022/08/01 01:58:14;;;;;;;2.13;0.85;;;;;;;;;;5074324;28;20035;-81
2022/08/01 02:00:41;;;;;;;1.65;0.85;;;;;;;;;;5071900;28;20505;-80
2022/08/01 02:03:08;;;;;;;1.65;0.95;;;;;;;;;;5073412;28;20094;-80
2022/08/01 02:05:34;;;;;;;1.85;1.10;;;;;;;;;;5087005;28;20036;-79
2022/08/01 02:08:01;;;;;;;1.00;0.80;;;;;;;;;;5072789;28;20043;-80
2022/08/01 02:10:28;;;;;;;1.52;0.90;;;;;;;;;;5089239;28;20048;-80
2022/08/01 02:12:55;;;;;;;1.60;1.08;;;;;;;;;;5089474;28;20036;-80
2022/08/01 02:15:23;;;;;;;1.63;1.00;;;;;;;;;;5073551;28;20499;-80
2022/08/01 02:17:50;;;;;;;2.75;1.00;;;;;;;;;;5074026;28;20064;-80
2022/08/01 02:20:16;;;;;;;1.63;0.90;;;;;;;;;;5089873;28;20044;-80
2022/08/01 02:22:44;;;;;;;1.63;0.70;;;;;;;;;;5071732;28;20043;-79
2022/08/01 02:25:14;;;;;;;1.80;1.00;;;;;;;;;;5089053;28;20039;-79
2022/08/01 02:27:44;;;;;;;1.88;0.80;;;;;;;;;;5087924;28;20517;-79
2022/08/01 02:30:13;;;;;;;2.08;1.00;;;;;;;;;;5087522;28;20051;-80
2022/08/01 02:32:54;;;;;;;1.42;0.93;;;;;;;;;;5089432;28;20391;-80
2022/08/01 02:35:22;;;;;;;2.25;0.90;;;;;;;;;;5073381;28;20037;-80
2022/08/01 02:37:49;;;;;;;1.92;0.88;;;;;;;;;;5073483;28;20025;-79
2022/08/01 02:40:17;;;;;;;1.45;0.95;;;;;;;;;;5088006;28;20033;-80
2022/08/01 02:42:44;;;;;;;1.00;0.90;;;;;;;;;;5072186;28;20032;-80
2022/08/01 02:45:11;;;;;;;1.63;0.77;;;;;;;;;;5089785;28;20032;-79
2022/08/01 02:47:38;;;;;;;1.63;1.10;;;;;;;;;;5078698;28;20035;-80
2022/08/01 02:50:05;;;;;;;1.35;1.10;;;;;;;;;;5081484;28;20085;-79
2022/08/01 02:52:31;;;;;;;1.20;1.10;;;;;;;;;;5061601;28;20483;-79
2022/08/01 02:54:59;;;;;;;2.05;0.90;;;;;;;;;;5057509;28;20066;-79
2022/08/01 02:57:25;;;;;;;1.33;1.20;;;;;;;;;;5075177;28;20111;-80
2022/08/01 02:59:51;;;;;;;1.88;1.13;;;;;;;;;;5078604;28;20032;-80
2022/08/01 03:02:18;;;;;;;1.83;1.02;;;;;;;;;;5068019;28;20111;-79
2022/08/01 03:04:44;;;;;;;1.20;0.93;;;;;;;;;;5101703;28;20393;-79
2022/08/01 03:07:11;;;;;;;2.00;1.02;;;;;;;;;;5055548;28;20112;-80
2022/08/01 03:09:39;;;;;;;2.92;1.10;;;;;;;;;;5083321;28;20119;-80
2022/08/01 03:12:07;;;;;;;1.95;1.45;;;;;;;;;;5091918;28;20032;-81
2022/08/01 03:14:35;;;;;;;2.67;1.17;;;;;;;;;;5070150;28;20495;-80
2022/08/01 03:17:02;;;;;;;1.90;0.70;;;;;;;;;;5092513;28;20069;-80
2022/08/01 03:19:28;;;;;;;1.35;0.90;;;;;;;;;;5061017;28;20482;-79
2022/08/01 03:21:56;;;;;;;3.42;1.45;;;;;;;;;;5055241;28;20413;-79
2022/08/01 03:24:22;;;;;;;3.10;1.08;;;;;;;;;;5046373;28;20052;-80
2022/08/01 03:26:49;;;;;;;1.65;1.20;;;;;;;;;;5067265;28;20548;-79
2022/08/01 03:29:17;;;;;;;1.45;1.00;;;;;;;;;;5066334;28;20044;-79
2022/08/01 03:31:45;;;;;;;2.20;1.10;;;;;;;;;;5066831;28;20057;-80
2022/08/01 03:34:11;;;;;;;1.70;1.10;;;;;;;;;;5067468;28;20063;-80
2022/08/01 03:36:57;;;;;;;2.33;1.30;;;;;;;;;;5052512;28;20288;-80
2022/08/01 03:39:25;;;;;;;1.85;1.30;;;;;;;;;;5028250;28;20033;-79
2022/08/01 03:41:55;;;;;;;1.88;1.05;;;;;;;;;;5054322;28;20033;-80
2022/08/01 03:44:24;;;;;;;1.77;1.00;;;;;;;;;;5046791;28;20120;-80
2022/08/01 03:46:54;;;;;;;1.02;1.00;;;;;;;;;;5068614;28;20033;-80
2022/08/01 03:49:26;;;;;;;2.28;1.30;;;;;;;;;;5051217;28;20499;-79
2022/08/01 03:51:53;;;;;;;1.38;0.93;;;;;;;;;;5066741;28;20525;-79
2022/08/01 03:54:21;;;;;;;1.88;1.10;;;;;;;;;;5067557;28;20040;-79
2022/08/01 03:56:49;;;;;;;1.98;1.08;;;;;;;;;;5067298;28;20033;-81
2022/08/01 03:59:16;;;;;;;2.15;1.30;;;;;;;;;;5034769;28;20037;-80
2022/08/01 04:01:42;;;;;;;2.55;1.05;;;;;;;;;;5051122;28;20090;-79
2022/08/01 04:04:08;;;;;;;1.55;1.10;;;;;;;;;;5051078;28;20036;-79
2022/08/01 04:06:37;;;;;;;1.25;1.17;;;;;;;;;;5066733;28;20064;-79
2022/08/01 04:09:03;;;;;;;1.52;1.25;;;;;;;;;;5066167;28;20379;-79
2022/08/01 04:11:29;;;;;;;1.77;1.25;;;;;;;;;;5052471;28;20052;-80
2022/08/01 04:13:55;;;;;;;1.20;1.10;;;;;;;;;;5055247;28;20835;-79
2022/08/01 04:16:22;;;;;;;2.67;1.30;;;;;;;;;;5051593;28;20487;-79
2022/08/01 04:18:48;;;;;;;1.52;1.23;;;;;;;;;;5063751;28;20517;-80
2022/08/01 04:21:14;;;;;;;1.60;1.30;;;;;;;;;;5054124;28;20036;-80
2022/08/01 04:23:41;;;;;;;2.30;1.30;;;;;;;;;;5084558;28;20024;-80
2022/08/01 04:26:08;;;;;;;3.22;1.33;;;;;;;;;;5067659;28;20062;-79
2022/08/01 04:28:35;;;;;;;3.47;1.38;;;;;;;;;;5080924;28;20071;-80
2022/08/01 04:31:02;;;;;;;3.05;1.45;;;;;;;;;;5084956;28;20048;-79
2022/08/01 04:33:30;;;;;;;2.80;1.35;;;;;;;;;;5080899;28;20029;-79
2022/08/01 04:35:57;;;;;;;3.33;1.45;;;;;;;;;;5075483;28;20055;-80
2022/08/01 04:38:27;;;;;;;3.30;1.50;;;;;;;;;;5086034;28;20478;-80
2022/08/01 04:40:54;;;;;;;1.85;1.50;;;;;;;;;;5071113;28;20031;-80
2022/08/01 04:43:20;;;;;;;2.28;1.48;;;;;;;;;;5071349;28;20118;-80
2022/08/01 04:45:46;;;;;;;2.75;1.60;;;;;;;;;;5071845;28;20082;-80
2022/08/01 04:48:13;;;;;;;2.00;1.40;;;;;;;;;;5070794;28;20086;-83
2022/08/01 04:50:41;;;;;;;2.55;1.48;;;;;;;;;;5070260;28;20110;-79
2022/08/01 04:53:12;;;;;;;3.08;1.90;;;;;;;;;;5071228;28;20029;-80
2022/08/01 04:55:38;;;;;;;2.42;1.70;;;;;;;;;;5071192;28;20036;-80
2022/08/01 04:58:04;;;;;;;2.88;1.70;;;;;;;;;;5087044;28;20111;-81
2022/08/01 05:00:30;;;;;;;2.10;1.73;;;;;;;;;;5070628;28;20037;-80
2022/08/01 05:02:56;;;;;;;1.88;1.50;;;;;;;;;;5089739;28;20047;-79
2022/08/01 05:05:22;;;;;;;2.90;2.00;;;;;;;;;;5059003;28;20120;-80
2022/08/01 05:07:48;;;;;;;3.72;2.38;;;;;;;;;;5069000;28;20493;-80
2022/08/01 05:10:14;;;;;;;2.20;1.73;;;;;;;;;;5069788;28;20132;-80
2022/08/01 05:12:40;;;;;;;4.93;1.88;;;;;;;;;;5070025;28;20037;-79
2022/08/01 05:15:06;;;;;;;3.40;2.15;;;;;;;;;;5071491;28;20033;-79
2022/08/01 05:17:32;;;;;;;2.42;2.08;;;;;;;;;;5071394;28;20063;-80
2022/08/01 05:19:58;;;;;;;3.08;2.22;;;;;;;;;;5087395;28;20056;-79
2022/08/01 05:22:25;;;;;;;2.95;1.92;;;;;;;;;;5070688;28;20025;-79
2022/08/01 05:24:52;;;;;;;3.30;2.22;;;;;;;;;;5052726;28;20028;-80
2022/08/01 05:27:18;;;;;;;3.70;2.22;;;;;;;;;;5069908;28;20040;-79
2022/08/01 05:29:44;;;;;;;2.10;1.90;;;;;;;;;;5069355;28;20043;-80
2022/08/01 05:32:10;;;;;;;4.05;2.35;;;;;;;;;;5089363;28;20052;-79
2022/08/01 05:34:36;;;;;;;2.72;2.17;;;;;;;;;;5073386;28;20528;-80
2022/08/01 05:37:02;;;;;;;2.63;2.42;;;;;;;;;;5074060;28;20037;-79
2022/08/01 05:39:28;;;;;;;4.20;2.88;;;;;;;;;;5082396;28;20061;-80
2022/08/01 05:41:54;;;;;;;3.35;2.38;;;;;;;;;;5062947;28;20036;-80
2022/08/01 05:44:20;;;;;;;4.03;2.42;;;;;;;;;;5081517;28;20025;-80
2022/08/01 05:46:46;;;;;;;3.28;2.53;;;;;;;;;;5074484;28;20032;-81
2022/08/01 05:49:13;;;;;;;4.22;2.90;;;;;;;;;;5100403;28;20469;-80
2022/08/01 05:51:39;;;;;;;4.10;2.95;;;;;;;;;;5062098;28;20037;-79
2022/08/01 05:54:05;;;;;;;3.03;2.67;;;;;;;;;;5067790;28;20029;-80
2022/08/01 05:56:31;;;;;;;4.55;2.35;;;;;;;;;;5074688;28;20494;-79
2022/08/01 05:58:57;;;;;;;2.72;2.53;;;;;;;;;;5086754;28;20082;-80
2022/08/01 06:01:23;;;;;;;3.45;2.65;;;;;;;;;;5055374;28;20078;-80
2022/08/01 06:03:49;;;;;;;4.75;3.05;;;;;;;;;;5088723;28;20482;-79
2022/08/01 06:06:15;;;;;;;5.68;3.30;;;;;;;;;;5073625;28;20037;-80
2022/08/01 06:08:41;;;;;;;4.47;3.38;;;;;;;;;;5073490;28;20031;-79
2022/08/01 06:11:07;;;;;;;5.03;3.75;;;;;;;;;;5088176;28;20494;-79
2022/08/01 06:13:33;;;;;;;5.50;3.78;;;;;;;;;;5073413;28;20028;-79
2022/08/01 06:15:59;;;;;;;5.80;3.92;;;;;;;;;;5088985;28;20032;-79
2022/08/01 06:18:25;;;;;;;5.05;3.40;;;;;;;;;;5070446;28;20042;-79
2022/08/01 06:20:51;;;;;;;6.35;3.95;;;;;;;;;;5071567;28;20036;-80
2022/08/01 06:23:17;;;;;;;5.30;3.80;;;;;;;;;;5072052;28;20029;-79
2022/08/01 06:25:47;;;;;;;6.10;4.30;;;;;;;;;;5088808;28;20667;-79
2022/08/01 06:28:13;;;;;;;6.90;5.13;;;;;;;;;;5086753;28;20036;-79
2022/08/01 06:30:39;;;;;;;6.40;4.35;;;;;;;;;;5048704;28;20070;-79
2022/08/01 06:33:05;;;;;;;5.10;4.35;;;;;;;;;;5069173;28;20037;-79
2022/08/01 06:35:31;;;;;;;8.23;4.65;;;;;;;;;;5086256;28;20079;-79
2022/08/01 06:37:57;;;;;;;7.22;5.32;;;;;;;;;;5053811;28;20060;-80
2022/08/01 06:40:23;;;;;;;6.68;4.18;;;;;;;;;;5053909;28;20028;-80
2022/08/01 06:42:50;;;;;;;8.27;5.78;;;;;;;;;;5067618;28;20032;-80
2022/08/01 06:45:16;;;;;;;6.78;4.95;;;;;;;;;;5052212;28;20087;-79
2022/08/01 06:47:42;;;;;;;7.07;5.20;;;;;;;;;;5070343;28;20035;-79
2022/08/01 06:50:09;;;;;;;6.70;5.10;;;;;;;;;;5051509;28;20854;-79
2022/08/01 06:52:36;;;;;;;5.65;4.80;;;;;;;;;;5087762;28;20060;-79
2022/08/01 06:55:02;;;;;;;7.50;4.38;;;;;;;;;;5049185;28;20044;-80
2022/08/01 06:57:28;;;;;;;9.50;5.60;;;;;;;;;;5051384;28;20838;-79
2022/08/01 06:59:54;;;;;;;8.23;6.35;;;;;;;;;;5071110;28;20058;-79
2022/08/01 07:02:20;;;;;;;10.48;6.05;;;;;;;;;;5072411;28;20039;-79
2022/08/01 07:04:46;;;;;;;10.00;7.28;;;;;;;;;;5088286;28;20032;-79
2022/08/01 07:07:12;;;;;;;9.20;6.25;;;;;;;;;;5086216;28;20551;-78
2022/08/01 07:09:40;;;;;;;8.90;6.57;;;;;;;;;;5070871;28;20402;-78
2022/08/01 07:12:07;;;;;;;8.18;6.38;;;;;;;;;;5086530;28;20501;-77
2022/08/01 07:14:33;;;;;;;7.80;5.75;;;;;;;;;;5085391;28;20105;-78
2022/08/01 07:16:58;;;;;;;8.57;6.30;;;;;;;;;;5080412;28;20072;-78
2022/08/01 07:19:24;;;;;;;8.07;5.80;;;;;;;;;;5082519;28;20048;-77
2022/08/01 07:21:50;;;;;;;7.38;5.72;;;;;;;;;;5098367;28;20105;-78
2022/08/01 07:24:19;;;;;;;6.72;5.82;;;;;;;;;;5055322;28;20131;-77
2022/08/01 07:26:46;;;;;;;8.70;7.10;;;;;;;;;;5082993;28;20048;-78
2022/08/01 07:29:12;;;;;;;6.93;5.85;;;;;;;;;;5068404;28;20043;-78
2022/08/01 07:31:38;;;;;;;7.03;6.03;;;;;;;;;;5052985;28;20519;-78
2022/08/01 07:34:04;;;;;;;6.57;5.25;;;;;;;;;;5072136;28;20036;-77
2022/08/01 07:36:30;;;;;;;8.90;6.45;;;;;;;;;;5085460;28;20427;-77
2022/08/01 07:38:56;;;;;;;6.93;5.55;;;;;;;;;;5087424;28;20059;-77
2022/08/01 07:41:22;;;;;;;6.90;5.68;;;;;;;;;;5080687;28;20029;-80
2022/08/01 07:43:48;;;;;;;7.20;5.35;;;;;;;;;;5054161;28;20043;-80
2022/08/01 07:46:15;;;;;;;7.05;5.38;;;;;;;;;;5084905;28;20040;-79
2022/08/01 07:48:41;;;;;;;7.53;5.90;;;;;;;;;;5084437;28;20275;-79
2022/08/01 07:51:08;;;;;;;8.48;6.20;;;;;;;;;;5086033;28;20052;-79
2022/08/01 07:53:34;;;;;;;6.55;5.72;;;;;;;;;;5070650;28;20470;-78
2022/08/01 07:56:02;;;;;;;6.60;5.82;;;;;;;;;;5084872;28;20037;-78
2022/08/01 07:58:28;;;;;;;9.05;6.80;;;;;;;;;;5087497;28;20044;-78
2022/08/01 08:00:54;;;;;;;6.70;5.80;;;;;;;;;;5086362;28;20028;-78
2022/08/01 08:03:20;;;;;;;8.10;5.90;;;;;;;;;;5070785;28;20045;-78
2022/08/01 08:05:46;;;;;;;8.13;5.32;;;;;;;;;;5087466;28;20024;-77
2022/08/01 08:08:13;;;;;;;7.13;5.43;;;;;;;;;;5086395;28;20478;-78
2022/08/01 08:10:39;;;;;;;7.90;6.03;;;;;;;;;;5085053;28;20044;-78
2022/08/01 08:13:05;;;;;;;6.55;5.07;;;;;;;;;;5069404;28;20044;-78
2022/08/01 08:15:31;;;;;;;6.78;5.18;;;;;;;;;;5086592;28;20044;-78
2022/08/01 08:17:57;;;;;;;9.80;6.20;;;;;;;;;;5087416;28;20032;-80
2022/08/01 08:20:28;;;;;;;6.68;5.68;;;;;;;;;;5093017;28;20127;-80
2022/08/01 08:22:55;;;;;;;7.25;5.18;;;;;;;;;;5072899;28;20052;-79
2022/08/01 08:25:22;;;;;;;7.13;5.13;;;;;;;;;;5062598;28;20029;-79
2022/08/01 08:27:48;;;;;;;7.45;5.40;;;;;;;;;;5086605;28;20039;-80
2022/08/01 08:30:14;;;;;;;6.25;4.70;;;;;;;;;;5088912;28;20082;-79
2022/08/01 08:32:41;;;;;;;6.30;4.65;;;;;;;;;;5084338;28;20033;-78
2022/08/01 08:35:07;;;;;;;6.07;4.65;;;;;;;;;;5094700;28;20067;-78
2022/08/01 08:37:34;;;;;;;8.80;4.68;;;;;;;;;;5053628;28;20029;-78
2022/08/01 08:40:00;;;;;;;6.82;4.80;;;;;;;;;;5105137;28;20059;-79
2022/08/01 08:42:26;;;;;;;6.15;4.68;;;;;;;;;;5081120;28;20536;-78
2022/08/01 08:44:54;;;;;;;6.20;4.70;;;;;;;;;;5085378;28;20089;-78
2022/08/01 08:47:20;;;;;;;4.25;3.85;;;;;;;;;;5053146;28;20071;-79
2022/08/01 08:49:46;;;;;;;4.65;3.72;;;;;;;;;;5079693;28;20490;-79
2022/08/01 08:52:13;;;;;;;4.75;3.80;;;;;;;;;;5037928;28;20123;-80
2022/08/01 08:54:41;;;;;;;4.40;3.65;;;;;;;;;;5059930;28;20060;-79
2022/08/01 08:57:07;;;;;;;3.95;3.55;;;;;;;;;;5044971;28;20020;-78
2022/08/01 08:59:34;;;;;;;4.18;3.65;;;;;;;;;;5068799;28;20464;-79
2022/08/01 09:02:00;;;;;;;5.57;4.68;;;;;;;;;;5070311;28;20032;-78
2022/08/01 09:04:26;;;;;;;4.97;4.43;;;;;;;;;;5052097;28;20044;-80
2022/08/01 09:06:53;;;;;;;7.57;5.43;;;;;;;;;;5054470;28;20343;-73
2022/08/01 09:09:19;;;;;;;7.07;5.55;;;;;;;;;;5063678;28;20037;-74
2022/08/01 09:11:45;;;;;;;6.70;5.65;;;;;;;;;;5088797;28;20040;-73
2022/08/01 09:14:13;;;;;;;7.43;5.82;;;;;;;;;;5074613;28;20106;-82
2022/08/01 09:16:44;;;;;;;5.60;5.00;;;;;;;;;;5089240;28;20059;-83
2022/08/01 09:19:11;;;;;;;5.78;5.07;;;;;;;;;;5079670;28;20041;-82
2022/08/01 09:21:37;;;;;;;6.00;5.35;;;;;;;;;;5059306;28;20111;-84
2022/08/01 09:24:05;;;;;;;6.90;5.18;;;;;;;;;;5054134;28;20025;-83
2022/08/01 09:26:35;;;;;;;7.45;5.88;;;;;;;;;;5069885;28;20029;-83
2022/08/01 09:29:08;;;;;;;7.53;5.60;;;;;;;;;;5069296;28;20095;-84
2022/08/01 09:31:44;;;;;;;7.20;5.97;;;;;;;;;;5054511;28;20047;-84
2022/08/01 09:34:10;;;;;;;6.85;5.28;;;;;;;;;;5054215;28;20025;-83
2022/08/01 09:36:51;;;;;;;6.43;5.22;;;;;;;;;;5036660;28;20450;-82
2022/08/01 09:39:17;;;;;;;6.78;4.95;;;;;;;;;;5053836;28;20051;-83
2022/08/01 09:41:43;;;;;;;7.07;4.85;;;;;;;;;;5086646;28;20042;-83
2022/08/01 09:44:09;;;;;;;9.63;6.00;;;;;;;;;;5055960;28;20025;-82
2022/08/01 09:46:36;;;;;;;6.72;5.57;;;;;;;;;;5037397;28;20405;-83
2022/08/01 09:49:05;;;;;;;7.35;5.88;;;;;;;;;;5052811;28;20029;-83
2022/08/01 09:51:39;;;;;;;6.70;5.50;;;;;;;;;;5047385;28;20403;-84
2022/08/01 09:54:06;;;;;;;6.95;4.60;;;;;;;;;;5053793;28;20091;-83
2022/08/01 09:56:37;;;;;;;6.68;5.20;;;;;;;;;;5059993;28;20028;-83
2022/08/01 09:59:03;;;;;;;6.18;4.90;;;;;;;;;;5036567;28;20132;-84
2022/08/01 10:01:42;;;;;;;6.78;4.90;;;;;;;;;;5059317;28;20107;-84
2022/08/01 10:04:09;;;;;;;6.55;5.47;;;;;;;;;;5067747;28;20037;-83
2022/08/01 10:06:36;;;;;;;5.10;4.60;;;;;;;;;;5057435;28;20024;-82
2022/08/01 10:09:02;;;;;;;7.13;5.30;;;;;;;;;;5067784;28;20041;-80
2022/08/01 10:11:28;;;;;;;7.72;5.50;;;;;;;;;;5079989;28;20051;-81
2022/08/01 10:13:55;;;;;;;6.72;5.32;;;;;;;;;;5057886;28;20035;-81
2022/08/01 10:16:21;;;;;;;6.97;5.80;;;;;;;;;;5050814;28;20037;-82
2022/08/01 10:18:47;;;;;;;7.55;5.03;;;;;;;;;;5070846;28;20434;-82
2022/08/01 10:21:13;;;;;;;6.25;4.25;;;;;;;;;;5049216;28;20115;-82
2022/08/01 10:23:40;;;;;;;4.95;4.45;;;;;;;;;;5051615;28;20040;-81
2022/08/01 10:26:07;;;;;;;6.50;4.00;;;;;;;;;;5083154;28;20387;-81
2022/08/01 10:28:35;;;;;;;5.65;4.50;;;;;;;;;;5052096;28;20029;-82
2022/08/01 10:31:02;;;;;;;5.95;4.50;;;;;;;;;;5053525;28;20048;-81
2022/08/01 10:33:28;;;;;;;4.93;3.90;;;;;;;;;;5052918;28;20106;-81
2022/08/01 10:35:55;;;;;;;5.13;4.10;;;;;;;;;;5050749;28;20028;-81
2022/08/01 10:38:21;;;;;;;4.65;3.75;;;;;;;;;;5084920;28;20067;-81
2022/08/01 10:40:47;;;;;;;4.20;3.78;;;;;;;;;;5050859;28;20037;-80
2022/08/01 10:43:16;;;;;;;4.85;3.38;;;;;;;;;;5084111;28;20033;-80
2022/08/01 10:45:43;;;;;;;4.43;4.00;;;;;;;;;;5075945;28;20044;-83
2022/08/01 10:48:09;;;;;;;4.50;3.80;;;;;;;;;;5053227;28;20037;-81
2022/08/01 10:50:38;;;;;;;4.65;3.80;;;;;;;;;;5052057;28;20045;-80
2022/08/01 10:53:12;;;;;;;4.88;3.90;;;;;;;;;;5085388;28;20037;-81
2022/08/01 10:56:00;;;;;;;4.32;3.90;;;;;;;;;;5053027;28;20400;-81
2022/08/01 10:58:27;;;;;;;4.35;3.78;;;;;;;;;;5035939;28;20024;-80
2022/08/01 11:01:12;;;;;;;4.00;3.22;;;;;;;;;;5039179;28;20480;-80
2022/08/01 11:03:41;;;;;;;3.55;3.25;;;;;;;;;;5032272;28;20030;-81
2022/08/01 11:06:07;;;;;;;3.60;2.97;;;;;;;;;;5076561;28;20590;-81
2022/08/01 11:08:37;;;;;;;3.67;2.88;;;;;;;;;;5084716;28;20037;-80
2022/08/01 11:11:04;;;;;;;3.88;2.90;;;;;;;;;;5083339;28;20048;-80
2022/08/01 11:13:49;;;;;;;3.25;2.85;;;;;;;;;;5085143;28;20108;-81
2022/08/01 11:16:35;;;;;;;2.85;2.63;;;;;;;;;;5083296;28;20553;-80
2022/08/01 11:19:02;;;;;;;2.70;2.50;;;;;;;;;;5067473;28;20045;-81
2022/08/01 11:21:49;;;;;;;3.28;2.97;;;;;;;;;;5072544;28;20111;-80
2022/08/01 11:24:15;;;;;;;3.00;2.67;;;;;;;;;;5061270;28;20102;-80
2022/08/01 11:27:01;;;;;;;3.33;3.03;;;;;;;;;;5071826;28;20508;-80
2022/08/01 11:29:27;;;;;;;2.90;2.70;;;;;;;;;;5085435;28;20044;-80
2022/08/01 11:31:53;;;;;;;3.33;3.03;;;;;;;;;;5072146;28;20035;-81
2022/08/01 11:34:19;;;;;;;3.08;2.80;;;;;;;;;;5054229;28;20024;-81
2022/08/01 11:36:45;;;;;;;3.63;3.33;;;;;;;;;;5070401;28;20442;-80
2022/08/01 11:39:12;;;;;;;3.55;3.25;;;;;;;;;;5053855;28;20127;-80
2022/08/01 11:41:38;;;;;;;3.33;3.03;;;;;;;;;;5085878;28;20032;-81
2022/08/01 11:44:08;;;;;;;3.08;2.78;;;;;;;;;;5084342;28;20040;-81
2022/08/01 11:46:46;;;;;;;3.45;2.88;;;;;;;;;;5051586;28;20028;-81
2022/08/01 11:49:32;;;;;;;3.42;3.13;;;;;;;;;;5085039;28;20097;-81
2022/08/01 11:52:12;;;;;;;3.60;2.85;;;;;;;;;;5084238;28;20045;-81
2022/08/01 11:54:39;;;;;;;3.28;2.97;;;;;;;;;;5073168;28;20131;-81
2022/08/01 11:57:12;;;;;;;3.00;2.78;;;;;;;;;;5087292;28;20025;-82
2022/08/01 11:59:45;;;;;;;4.15;2.60;;;;;;;;;;5072079;28;20055;-80
2022/08/01 12:02:31;;;;;;;2.90;2.53;;;;;;;;;;5084722;28;20039;-81
2022/08/01 12:04:58;;;;;;;3.15;2.53;;;;;;;;;;5084167;28;20039;-81
2022/08/01 12:07:25;;;;;;;2.50;2.30;;;;;;;;;;5069830;28;20082;-81
2022/08/01 12:09:58;;;;;;;2.75;2.55;;;;;;;;;;5086246;28;20044;-82
2022/08/01 12:12:27;;;;;;;3.13;2.50;;;;;;;;;;5085319;28;20025;-81
2022/08/01 12:14:54;;;;;;;2.70;2.50;;;;;;;;;;5068305;28;20506;-83
2022/08/01 12:17:21;;;;;;;3.08;2.45;;;;;;;;;;5050855;28;20025;-81
2022/08/01 12:19:49;;;;;;;2.72;2.53;;;;;;;;;;5055000;28;20041;-81
2022/08/01 12:22:15;;;;;;;;;;;;;;;;;;5049708;28;20499;-81
2022/08/01 12:24:43;;;;;;;2.38;2.28;;;;;;;;;;5062492;28;19915;-81
2022/08/01 12:27:12;;;;;;;2.92;2.72;;;;;;;;;;5065193;28;20041;-80
2022/08/01 12:29:39;;;;;;;2.67;2.47;;;;;;;;;;5051207;28;20113;-81
2022/08/01 12:32:23;;;;;;;2.90;2.70;;;;;;;;;;5031618;28;20124;-82
2022/08/01 12:34:49;;;;;;;2.75;2.55;;;;;;;;;;5049526;28;20098;-82
2022/08/01 12:37:17;;;;;;;2.90;2.70;;;;;;;;;;5051880;28;20439;-82
2022/08/01 12:39:44;;;;;;;2.92;2.72;;;;;;;;;;5065768;28;20531;-81
2022/08/01 12:42:12;;;;;;;2.92;2.63;;;;;;;;;;5080800;28;20090;-81
2022/08/01 12:44:39;;;;;;;2.38;2.20;;;;;;;;;;5054198;28;20543;-82
2022/08/01 12:47:06;;;;;;;2.40;2.30;;;;;;;;;;5048742;28;20634;-81
2022/08/01 12:49:33;;;;;;;2.75;2.55;;;;;;;;;;5066585;28;20063;-82
2022/08/01 12:51:59;;;;;;;3.08;2.85;;;;;;;;;;5080635;28;20037;-82
2022/08/01 12:54:25;;;;;;;3.05;2.70;;;;;;;;;;5043567;28;20033;-82
2022/08/01 12:56:53;;;;;;;2.83;2.63;;;;;;;;;;5061570;28;20042;-81
2022/08/01 12:59:26;;;;;;;2.50;2.30;;;;;;;;;;5045290;28;20032;-82
2022/08/01 13:01:53;;;;;;;2.70;2.45;;;;;;;;;;5055449;28;20394;-81
2022/08/01 13:04:19;;;;;;;2.40;2.20;;;;;;;;;;5055360;28;20480;-81
2022/08/01 13:06:45;;;;;;;2.17;1.98;;;;;;;;;;5069284;28;20082;-82
2022/08/01 13:09:13;;;;;;;2.47;2.28;;;;;;;;;;5046596;28;20355;-81
2022/08/01 13:11:39;;;;;;;2.65;2.00;;;;;;;;;;5075004;28;20448;-81
2022/08/01 13:14:05;;;;;;;2.15;1.83;;;;;;;;;;5052927;28;20437;-81
2022/08/01 13:16:31;;;;;;;1.80;1.70;;;;;;;;;;5089569;28;20036;-82
2022/08/01 13:18:58;;;;;;;1.60;1.50;;;;;;;;;;5076992;28;20094;-81
2022/08/01 13:21:25;;;;;;;1.55;1.45;;;;;;;;;;5052821;28;20064;-84
2022/08/01 13:24:06;;;;;;;1.80;1.60;;;;;;;;;;5052896;28;20036;-81
2022/08/01 13:26:39;;;;;;;1.55;1.45;;;;;;;;;;5055478;28;20056;-81
2022/08/01 13:29:06;;;;;;;1.80;1.52;;;;;;;;;;5066473;28;20040;-82
2022/08/01 13:31:36;;;;;;;2.00;1.70;;;;;;;;;;5032139;28;20033;-81
2022/08/01 13:34:02;;;;;;;2.08;1.70;;;;;;;;;;5046925;28;20045;-81
2022/08/01 13:36:29;;;;;;;1.73;1.63;;;;;;;;;;5052467;28;20501;-82
2022/08/01 13:41:40;;;;;;;2.05;1.70;;;;;;;;;;5048236;28;20040;-86
2022/08/01 13:44:08;;;;;;;2.10;1.58;;;;;;;;;;5083574;28;20037;-81
2022/08/01 13:46:34;;;;;;;1.77;1.67;;;;;;;;;;5042669;28;20550;-81
2022/08/01 13:49:01;;;;;;;1.90;1.80;;;;;;;;;;5039686;28;20041;-81
2022/08/01 13:51:26;;;;;;;2.58;1.80;;;;;;;;;;5081578;28;20048;-81
2022/08/01 13:53:55;;;;;;;1.80;1.70;;;;;;;;;;5084835;28;20032;-81
2022/08/01 13:56:22;;;;;;;1.90;1.80;;;;;;;;;;5084226;28;20043;-80
2022/08/01 13:58:48;;;;;;;1.77;1.67;;;;;;;;;;5046744;28;20037;-82
2022/08/01 14:01:14;;;;;;;2.35;2.15;;;;;;;;;;5082013;28;20095;-80
2022/08/01 14:03:40;;;;;;;2.00;1.90;;;;;;;;;;5045068;28;20049;-80
2022/08/01 14:06:06;;;;;;;2.08;1.70;;;;;;;;;;5052000;28;20116;-82
2022/08/01 14:08:32;;;;;;;2.00;1.80;;;;;;;;;;5049689;28;20033;-84
2022/08/01 14:10:58;;;;;;;1.95;1.83;;;;;;;;;;5050488;28;20055;-88
2022/08/01 14:13:25;;;;;;;1.70;1.60;;;;;;;;;;5049512;28;20088;-80
2022/08/01 14:15:55;;;;;;;1.88;1.77;;;;;;;;;;5077270;28;20082;-80
2022/08/01 14:18:21;;;;;;;1.60;1.50;;;;;;;;;;5087915;28;20056;-84
2022/08/01 14:20:47;;;;;;;1.70;1.60;;;;;;;;;;5072700;28;20072;-88
2022/08/01 14:23:13;;;;;;;1.85;1.60;;;;;;;;;;5072154;28;20036;-83
2022/08/01 14:25:40;;;;;;;1.80;1.70;;;;;;;;;;5086066;28;20474;-79
2022/08/01 14:28:06;;;;;;;3.28;1.73;;;;;;;;;;5070754;28;20058;-80
2022/08/01 14:30:32;;;;;;;1.65;1.55;;;;;;;;;;5087200;28;20079;-81
2022/08/01 14:32:58;;;;;;;2.00;1.90;;;;;;;;;;5072716;28;20033;-81
2022/08/01 14:35:24;;;;;;;1.90;1.80;;;;;;;;;;5075553;28;20036;-80
2022/08/01 14:37:51;;;;;;;1.80;1.67;;;;;;;;;;5073362;28;20036;-79
2022/08/01 14:40:17;;;;;;;3.60;1.85;;;;;;;;;;5102956;28;20035;-80
2022/08/01 14:42:46;;;;;;;2.33;1.50;;;;;;;;;;5072850;28;20033;-81
2022/08/01 14:45:13;;;;;;;1.55;1.45;;;;;;;;;;5088987;28;20127;-79
2022/08/01 14:47:39;;;;;;;2.10;1.83;;;;;;;;;;5073432;28;20025;-79
2022/08/01 14:50:06;;;;;;;3.53;1.95;;;;;;;;;;5057977;28;20032;-79